createdAt,value
2022-08-04T00:02:53.282Z,22.74
2022-08-04T00:08:06.264Z,22.74
2022-08-04T00:13:10.519Z,22.64
2022-08-04T00:18:17.389Z,22.59
2022-08-04T00:23:23.646Z,22.48
2022-08-04T00:28:26.748Z,22.45
2022-08-04T00:33:29.801Z,22.49
2022-08-04T00:38:35.491Z,22.45
2022-08-04T00:43:48.690Z,22.38
2022-08-04T00:49:39.495Z,22.35
2022-08-04T00:55:00.302Z,22.40
2022-08-04T01:00:09.480Z,22.35
2022-08-04T01:05:21.822Z,22.38
2022-08-04T01:10:38.920Z,22.30
2022-08-04T01:16:00.135Z,22.34
2022-08-04T01:21:32.342Z,22.41
2022-08-04T01:26:57.915Z,22.46
2022-08-04T01:32:05.443Z,22.45
2022-08-04T01:37:13.304Z,22.36
2022-08-04T01:42:31.712Z,22.32
2022-08-04T01:47:38.318Z,22.28
2022-08-04T01:52:44.640Z,22.22
2022-08-04T01:57:51.900Z,22.15
2022-08-04T02:02:57.887Z,22.20
2022-08-04T02:08:13.068Z,22.07
2022-08-04T02:13:24.752Z,21.98
2022-08-04T02:18:33.265Z,21.91
2022-08-04T02:23:38.955Z,21.90
2022-08-04T02:28:49.226Z,21.90
2022-08-04T02:34:06.499Z,21.82
2022-08-04T02:39:11.886Z,21.72
2022-08-04T02:44:20.999Z,21.67
2022-08-04T02:49:25.336Z,21.62
2022-08-04T02:54:41.079Z,21.56
2022-08-04T03:00:02.641Z,21.54
2022-08-04T03:05:14.540Z,21.55
2022-08-04T03:10:38.662Z,21.52
2022-08-04T03:16:19.895Z,21.44
2022-08-04T03:22:01.644Z,21.42
2022-08-04T03:27:35.571Z,21.47
2022-08-04T03:33:14.847Z,21.52
2022-08-04T03:38:55.614Z,21.53
2022-08-04T03:44:37.463Z,21.53
2022-08-04T03:50:19.209Z,21.62
2022-08-04T03:55:47.081Z,21.80
2022-08-04T04:00:58.900Z,21.78
2022-08-04T04:06:33.725Z,21.88
2022-08-04T04:12:03.008Z,21.91
2022-08-04T04:17:16.688Z,21.89
2022-08-04T04:22:33.193Z,21.97
2022-08-04T04:28:45.460Z,22.10
2022-08-04T04:33:38.348Z,22.25
2022-08-04T04:39:02.545Z,22.29
2022-08-04T04:44:30.238Z,22.36
2022-08-04T04:49:38.964Z,22.39
2022-08-04T04:54:46.971Z,22.48
2022-08-04T04:59:58.707Z,22.54
2022-08-04T05:05:22.326Z,22.65
2022-08-04T05:10:39.066Z,22.75
2022-08-04T05:15:46.584Z,22.71
2022-08-04T05:20:55.017Z,22.86
2022-08-04T05:26:02.134Z,22.95
2022-08-04T05:31:11.983Z,23.14
2022-08-04T05:36:29.364Z,23.35
2022-08-04T05:41:45.586Z,23.67
2022-08-04T05:46:54.799Z,23.90
2022-08-04T05:52:01.326Z,24.19
2022-08-04T05:57:06.181Z,24.21
2022-08-04T06:02:11.188Z,24.51
2022-08-04T06:07:14.724Z,25.13
2022-08-04T06:12:22.227Z,25.46
2022-08-04T06:19:56.369Z,25.23
2022-08-04T06:22:57.764Z,25.06
2022-08-04T06:28:02.905Z,25.27
2022-08-04T06:33:28.760Z,25.58
2022-08-04T06:38:35.963Z,26.14
2022-08-04T06:43:43.005Z,27.41
2022-08-04T06:48:49.012Z,30.09
2022-08-04T06:53:52.037Z,31.02
2022-08-04T06:58:58.944Z,33.29
2022-08-04T07:04:04.251Z,33.85
2022-08-04T07:09:10.284Z,34.31
2022-08-04T07:14:13.984Z,36.52
2022-08-04T07:19:19.187Z,38.26
2022-08-04T07:24:22.064Z,37.47
2022-08-04T07:29:25.484Z,37.49
2022-08-04T07:34:31.746Z,35.68
2022-08-04T07:39:48.022Z,36.79
2022-08-04T07:44:52.871Z,38.48
2022-08-04T07:56:42.173Z,39.44
2022-08-04T08:01:45.449Z,40.31
2022-08-04T08:06:48.393Z,40.17
2022-08-04T08:12:36.927Z,40.03
2022-08-04T08:17:17.512Z,39.63
2022-08-04T08:22:20.340Z,38.23
2022-08-04T08:27:24.791Z,37.66
2022-08-04T08:32:28.935Z,35.17
2022-08-04T08:37:40.317Z,33.32
2022-08-04T08:43:59.957Z,32.76
2022-08-04T08:48:50.669Z,32.64
2022-08-04T08:54:16.707Z,32.10
2022-08-04T08:59:54.758Z,32.36
2022-08-04T09:05:20.904Z,32.41
2022-08-04T09:10:33.325Z,32.40
2022-08-04T09:15:42.773Z,32.59
2022-08-04T09:20:49.720Z,33.07
2022-08-04T09:25:59.627Z,32.80
2022-08-04T09:31:10.731Z,32.44
2022-08-04T09:36:28.856Z,32.37
2022-08-04T09:41:49.713Z,32.84
2022-08-04T09:47:07.076Z,33.30
2022-08-04T09:52:24.925Z,33.13
2022-08-04T09:57:40.280Z,33.37
2022-08-04T10:02:48.377Z,33.40
2022-08-04T10:08:18.951Z,33.17
2022-08-04T10:13:45.323Z,33.65
2022-08-04T10:18:59.413Z,33.57
2022-08-04T10:24:29.846Z,33.48
2022-08-04T10:29:42.224Z,33.30
2022-08-04T10:34:55.107Z,33.92
2022-08-04T10:40:23.773Z,34.15
2022-08-04T10:45:34.903Z,34.14
2022-08-04T10:50:41.397Z,34.33
2022-08-04T10:56:06.756Z,33.82
2022-08-04T11:02:01.132Z,33.98
2022-08-04T11:06:42.350Z,33.82
2022-08-04T11:12:00.129Z,34.36
2022-08-04T11:17:09.128Z,34.65
2022-08-04T11:22:28.009Z,35.17
2022-08-04T11:27:49.975Z,35.82
2022-08-04T11:33:03.329Z,36.38
2022-08-04T11:38:12.382Z,36.20
2022-08-04T11:43:56.438Z,36.27
2022-08-04T11:48:57.392Z,36.45
2022-08-04T11:54:01.621Z,36.18
2022-08-04T11:59:08.117Z,35.91
2022-08-04T12:04:18.733Z,36.36
2022-08-04T12:09:33.143Z,36.48
2022-08-04T12:14:48.051Z,36.26
2022-08-04T12:20:04.858Z,35.92
2022-08-04T12:25:22.614Z,36.01
2022-08-04T12:30:59.637Z,36.30
2022-08-04T12:36:11.008Z,36.39
2022-08-04T12:41:21.883Z,36.22
2022-08-04T12:46:29.081Z,36.09
2022-08-04T12:52:07.857Z,35.96
2022-08-04T12:57:03.078Z,35.59
2022-08-04T13:02:13.522Z,35.45
2022-08-04T13:07:20.959Z,35.98
2022-08-04T13:12:32.509Z,36.17
2022-08-04T13:17:50.574Z,36.20
2022-08-04T13:22:59.208Z,36.41
2022-08-04T13:28:04.030Z,36.37
2022-08-04T13:33:08.837Z,35.96
2022-08-04T13:38:13.288Z,35.67
2022-08-04T13:44:15.617Z,36.17
2022-08-04T13:49:08.988Z,35.51
2022-08-04T13:54:13.792Z,35.42
2022-08-04T13:59:18.956Z,36.10
2022-08-04T14:04:26.021Z,36.13
2022-08-04T14:09:35.356Z,36.05
2022-08-04T14:14:46.509Z,36.11
2022-08-04T14:19:54.204Z,35.77
2022-08-04T14:24:57.818Z,35.35
2022-08-04T14:30:00.769Z,35.10
2022-08-04T14:35:13.324Z,34.61
2022-08-04T14:40:30.327Z,34.35
2022-08-04T14:45:35.592Z,33.72
2022-08-04T14:50:42.099Z,32.74
2022-08-04T14:55:47.692Z,32.37
2022-08-04T15:00:51.976Z,31.57
2022-08-04T15:06:05.446Z,30.95
2022-08-04T15:11:11.100Z,30.48
2022-08-04T15:16:28.445Z,30.12
2022-08-04T15:21:32.854Z,29.72
2022-08-04T15:26:40.730Z,29.31
2022-08-04T15:32:05.337Z,28.90
2022-08-04T15:37:09.902Z,28.17
2022-08-04T15:42:21.151Z,28.06
2022-08-04T15:47:24.598Z,27.74
2022-08-04T15:52:29.221Z,26.14
2022-08-04T15:58:03.427Z,25.22
2022-08-04T16:03:55.382Z,25.25
2022-08-04T16:09:06.213Z,25.03
2022-08-04T16:14:10.127Z,24.11
2022-08-04T16:19:22.013Z,24.66
2022-08-04T16:24:32.491Z,25.44
2022-08-04T16:29:37.841Z,25.74
2022-08-04T16:34:49.510Z,25.80
2022-08-04T16:40:39.697Z,25.29
2022-08-04T16:45:48.614Z,25.37
2022-08-04T16:50:57.192Z,25.10
2022-08-04T16:56:01.427Z,24.94
2022-08-04T17:01:09.524Z,24.81
2022-08-04T17:06:14.806Z,24.84
2022-08-04T17:11:19.112Z,24.68
2022-08-04T17:16:25.466Z,24.62
2022-08-04T17:21:30.039Z,24.55
2022-08-04T17:26:39.971Z,24.55
2022-08-04T17:31:45.850Z,24.60
2022-08-04T17:36:49.253Z,24.60
2022-08-04T17:41:58.553Z,24.66
2022-08-04T17:47:12.815Z,24.73
2022-08-04T17:52:37.418Z,24.67
2022-08-04T18:03:08.758Z,24.40
2022-08-04T18:08:40.589Z,24.34
2022-08-04T18:13:43.447Z,24.17
2022-08-04T18:19:06.499Z,24.08
2022-08-04T18:24:11.455Z,23.91
2022-08-04T18:29:31.468Z,24.00
2022-08-04T18:34:35.039Z,23.91
2022-08-04T18:40:09.754Z,24.04
2022-08-04T18:45:09.808Z,23.76
2022-08-04T18:51:00.119Z,23.76
2022-08-04T18:55:55.918Z,23.68
2022-08-04T19:01:00.455Z,23.56
2022-08-04T19:06:07.612Z,23.51
2022-08-04T19:11:37.335Z,23.33
2022-08-04T19:16:40.883Z,23.14
2022-08-04T19:22:01.084Z,23.03
2022-08-04T19:27:12.117Z,23.08
2022-08-04T19:32:16.550Z,23.03
2022-08-04T19:37:56.855Z,22.90
2022-08-04T19:42:43.378Z,22.65
2022-08-04T19:48:16.418Z,22.63
2022-08-04T19:53:18.956Z,22.74
2022-08-04T19:58:26.265Z,22.59
2022-08-04T20:04:09.174Z,22.45
2022-08-04T20:08:53.705Z,22.50
2022-08-04T20:13:58.375Z,22.30
2022-08-04T20:19:04.212Z,22.21
2022-08-04T20:24:39.429Z,22.30
2022-08-04T20:29:40.964Z,22.24
2022-08-04T20:34:47.837Z,22.22
2022-08-04T20:39:55.312Z,21.98
2022-08-04T20:44:58.556Z,21.92
2022-08-04T20:50:03.252Z,21.58
2022-08-04T20:55:08.322Z,21.55
2022-08-04T21:00:13.446Z,21.26
2022-08-04T21:05:17.991Z,21.15
2022-08-04T21:10:21.838Z,21.15
2022-08-04T21:15:26.411Z,21.07
2022-08-04T21:20:50.016Z,21.04
2022-08-04T21:25:56.927Z,20.84
2022-08-04T21:31:02.505Z,20.98
2022-08-04T21:36:27.503Z,20.79
2022-08-04T21:41:30.452Z,20.69
2022-08-04T21:46:33.909Z,20.58
2022-08-04T21:51:59.197Z,20.46
2022-08-04T21:57:04.214Z,20.55
2022-08-04T22:02:09.197Z,20.43
2022-08-04T22:07:16.478Z,20.37
2022-08-04T22:12:21.197Z,20.26
2022-08-04T22:17:25.068Z,20.20
2022-08-04T22:22:30.011Z,20.16
2022-08-04T22:27:55.407Z,20.14
2022-08-04T22:32:58.345Z,20.18
2022-08-04T22:38:06.920Z,20.06
2022-08-04T22:43:33.384Z,20.08
2022-08-04T22:48:38.276Z,19.97
2022-08-04T22:53:48.979Z,19.96
2022-08-04T22:58:52.102Z,19.93
2022-08-04T23:03:56.203Z,19.83
2022-08-04T23:09:00.441Z,19.75
2022-08-04T23:14:05.501Z,19.64
2022-08-04T23:19:09.778Z,19.65
2022-08-04T23:24:14.377Z,19.56
2022-08-04T23:29:17.187Z,19.51
2022-08-04T23:34:20.004Z,19.38
2022-08-04T23:39:24.268Z,19.31
2022-08-04T23:44:28.161Z,19.38
2022-08-04T23:49:42.343Z,19.33
2022-08-04T23:54:51.257Z,19.23
2022-08-04T23:59:56.000Z,19.09
